createdAt,value
2023-02-19T00:01:47.048Z,94.08
2023-02-19T00:04:22.868Z,94.71
2023-02-19T00:06:50.311Z,94.80
2023-02-19T00:09:19.764Z,94.92
2023-02-19T00:11:48.161Z,94.98
2023-02-19T00:14:19.177Z,94.91
2023-02-19T00:16:47.252Z,95.45
2023-02-19T00:19:18.105Z,95.80
2023-02-19T00:21:45.661Z,95.46
2023-02-19T00:24:14.307Z,95.54
2023-02-19T00:26:43.597Z,95.48
2023-02-19T00:29:19.888Z,95.35
2023-02-19T00:31:48.388Z,96.43
2023-02-19T00:34:16.156Z,96.06
2023-02-19T00:36:44.332Z,96.13
2023-02-19T00:39:15.985Z,95.84
2023-02-19T00:41:44.738Z,96.25
2023-02-19T00:44:13.268Z,96.50
2023-02-19T00:46:43.754Z,96.33
2023-02-19T00:49:29.242Z,96.72
2023-02-19T00:51:57.016Z,97.08
2023-02-19T00:54:24.631Z,96.97
2023-02-19T00:56:52.279Z,96.57
2023-02-19T00:59:19.895Z,96.22
2023-02-19T01:01:47.640Z,96.83
2023-02-19T01:04:16.612Z,96.76
2023-02-19T01:06:44.365Z,96.87
2023-02-19T01:09:11.932Z,96.90
2023-02-19T01:11:39.839Z,97.17
2023-02-19T01:14:07.775Z,97.50
2023-02-19T01:16:35.503Z,97.27
2023-02-19T01:19:03.457Z,97.85
2023-02-19T01:21:31.454Z,97.93
2023-02-19T01:23:59.159Z,97.66
2023-02-19T01:26:30.811Z,97.87
2023-02-19T01:29:00.781Z,98.18
2023-02-19T01:31:29.465Z,98.25
2023-02-19T01:34:02.744Z,98.49
2023-02-19T01:36:32.987Z,98.53
2023-02-19T01:39:05.333Z,98.53
2023-02-19T01:41:36.552Z,98.53
2023-02-19T01:44:13.138Z,98.82
2023-02-19T01:46:42.795Z,98.85
2023-02-19T01:49:18.948Z,99.08
2023-02-19T01:51:56.579Z,99.48
2023-02-19T01:54:28.604Z,99.50
2023-02-19T01:56:57.362Z,99.20
2023-02-19T01:59:25.886Z,99.38
2023-02-19T02:01:53.988Z,99.52
2023-02-19T02:04:21.470Z,99.41
2023-02-19T02:06:52.366Z,99.30
2023-02-19T02:09:41.360Z,99.34
2023-02-19T02:12:08.895Z,99.28
2023-02-19T02:14:40.327Z,99.30
2023-02-19T02:17:29.362Z,99.38
2023-02-19T02:20:15.298Z,99.10
2023-02-19T02:22:52.223Z,99.98
2023-02-19T02:25:39.349Z,99.24
2023-02-19T02:28:25.124Z,99.21
2023-02-19T02:30:56.538Z,99.04
2023-02-19T02:33:41.871Z,99.29
2023-02-19T02:36:17.191Z,99.42
2023-02-19T02:38:46.610Z,99.37
2023-02-19T02:41:15.720Z,99.05
2023-02-19T02:43:43.355Z,99.25
2023-02-19T02:46:23.298Z,99.06
2023-02-19T02:48:58.878Z,99.10
2023-02-19T02:51:33.647Z,99.02
2023-02-19T02:54:34.692Z,99.45
2023-02-19T02:57:09.695Z,99.27
2023-02-19T02:59:45.832Z,99.22
2023-02-19T03:02:22.941Z,98.95
2023-02-19T03:05:25.673Z,98.87
2023-02-19T03:08:04.941Z,98.94
2023-02-19T03:10:39.240Z,99.24
2023-02-19T03:13:30.173Z,99.21
2023-02-19T03:16:27.346Z,99.18
2023-02-19T03:19:15.989Z,98.97
2023-02-19T03:21:47.326Z,99.09
2023-02-19T03:24:35.214Z,99.15
2023-02-19T03:27:05.012Z,99.13
2023-02-19T03:29:40.882Z,99.47
2023-02-19T03:32:35.843Z,99.78
2023-02-19T03:35:29.301Z,100.00
2023-02-19T03:38:07.198Z,100.00
2023-02-19T03:40:50.936Z,100.00
2023-02-19T03:43:39.599Z,100.00
2023-02-19T03:46:15.665Z,100.00
2023-02-19T03:49:02.997Z,100.00
2023-02-19T03:51:33.582Z,100.00
2023-02-19T03:54:01.767Z,100.00
2023-02-19T03:56:38.724Z,100.00
2023-02-19T03:59:11.088Z,100.00
2023-02-19T04:01:49.249Z,100.00
2023-02-19T04:04:33.396Z,100.00
2023-02-19T04:07:01.669Z,100.00
2023-02-19T04:09:43.509Z,100.00
2023-02-19T04:12:17.600Z,100.00
2023-02-19T04:14:48.720Z,100.00
2023-02-19T04:17:32.539Z,100.00
2023-02-19T04:20:01.135Z,100.00
2023-02-19T04:22:29.480Z,100.00
2023-02-19T04:24:57.421Z,100.00
2023-02-19T04:27:24.880Z,100.00
2023-02-19T04:29:52.327Z,100.00
2023-02-19T04:32:20.143Z,100.00
2023-02-19T04:34:47.396Z,100.00
2023-02-19T04:37:14.722Z,100.00
2023-02-19T04:39:42.556Z,100.00
2023-02-19T04:42:11.064Z,100.00
2023-02-19T04:44:38.759Z,100.00
2023-02-19T04:47:06.171Z,100.00
2023-02-19T04:49:33.627Z,100.00
2023-02-19T04:52:01.067Z,100.00
2023-02-19T04:54:28.806Z,100.00
2023-02-19T04:56:57.667Z,100.00
2023-02-19T04:59:25.215Z,100.00
2023-02-19T05:01:53.023Z,100.00
2023-02-19T05:04:20.670Z,100.00
2023-02-19T05:06:48.195Z,100.00
2023-02-19T05:09:15.803Z,100.00
2023-02-19T05:11:43.250Z,100.00
2023-02-19T05:14:10.856Z,100.00
2023-02-19T05:16:38.446Z,100.00
2023-02-19T05:19:06.036Z,100.00
2023-02-19T05:21:33.423Z,100.00
2023-02-19T05:24:01.039Z,100.00
2023-02-19T05:26:29.446Z,100.00
2023-02-19T05:28:57.652Z,100.00
2023-02-19T05:31:25.895Z,100.00
2023-02-19T05:33:55.801Z,100.00
2023-02-19T05:36:24.030Z,100.00
2023-02-19T05:38:56.517Z,100.00
2023-02-19T05:41:29.068Z,100.00
2023-02-19T05:43:57.869Z,100.00
2023-02-19T05:46:27.882Z,100.00
2023-02-19T05:48:56.174Z,100.00
2023-02-19T05:51:25.377Z,100.00
2023-02-19T05:53:54.652Z,100.00
2023-02-19T05:56:32.639Z,100.00
2023-02-19T05:59:08.258Z,100.00
2023-02-19T06:01:36.731Z,100.00
2023-02-19T06:04:08.300Z,100.00
2023-02-19T06:06:37.361Z,100.00
2023-02-19T06:09:06.277Z,100.00
2023-02-19T06:11:34.778Z,100.00
2023-02-19T06:14:03.214Z,100.00
2023-02-19T06:16:32.739Z,100.00
2023-02-19T06:19:04.156Z,100.00
2023-02-19T06:21:32.690Z,100.00
2023-02-19T06:24:05.120Z,100.00
2023-02-19T06:26:32.688Z,100.00
2023-02-19T06:29:00.901Z,100.00
2023-02-19T06:31:28.965Z,100.00
2023-02-19T06:33:56.884Z,100.00
2023-02-19T06:36:24.742Z,100.00
2023-02-19T06:38:52.800Z,100.00
2023-02-19T06:41:20.548Z,100.00
2023-02-19T06:43:48.191Z,100.00
2023-02-19T06:46:16.304Z,100.00
2023-02-19T06:48:45.740Z,100.00
2023-02-19T06:51:15.500Z,100.00
2023-02-19T06:53:43.831Z,100.00
2023-02-19T06:56:32.551Z,100.00
2023-02-19T06:59:03.429Z,100.00
2023-02-19T07:01:37.098Z,100.00
2023-02-19T07:04:06.660Z,100.00
2023-02-19T07:06:35.864Z,100.00
2023-02-19T07:09:05.695Z,100.00
2023-02-19T07:11:35.331Z,100.00
2023-02-19T07:14:05.483Z,100.00
2023-02-19T07:16:33.103Z,100.00
2023-02-19T07:19:02.352Z,100.00
2023-02-19T07:21:30.559Z,100.00
2023-02-19T07:23:58.310Z,100.00
2023-02-19T07:26:25.973Z,100.00
2023-02-19T07:28:53.703Z,100.00
2023-02-19T07:31:23.469Z,100.00
2023-02-19T07:33:51.528Z,100.00
2023-02-19T07:36:20.690Z,100.00
2023-02-19T07:38:53.052Z,100.00
2023-02-19T07:41:20.498Z,100.00
2023-02-19T07:43:48.083Z,100.00
2023-02-19T07:46:15.709Z,100.00
2023-02-19T07:48:44.747Z,100.00
2023-02-19T07:51:17.646Z,100.00
2023-02-19T07:53:46.330Z,100.00
2023-02-19T07:56:14.334Z,100.00
2023-02-19T07:58:42.156Z,100.00
2023-02-19T08:01:18.718Z,100.00
2023-02-19T08:03:48.202Z,100.00
2023-02-19T08:06:17.058Z,100.00
2023-02-19T08:08:44.353Z,100.00
2023-02-19T08:11:30.352Z,100.00
2023-02-19T08:13:57.896Z,100.00
2023-02-19T08:16:40.721Z,100.00
2023-02-19T08:19:09.129Z,100.00
2023-02-19T08:21:37.650Z,100.00
2023-02-19T08:24:06.139Z,100.00
2023-02-19T08:26:34.685Z,100.00
2023-02-19T08:29:04.012Z,100.00
2023-02-19T08:31:31.946Z,99.91
2023-02-19T08:34:02.877Z,99.29
2023-02-19T08:36:30.705Z,100.00
2023-02-19T08:38:58.065Z,99.25
2023-02-19T08:41:25.949Z,99.34
2023-02-19T08:43:53.509Z,99.48
2023-02-19T08:46:21.421Z,100.00
2023-02-19T08:48:49.210Z,100.00
2023-02-19T08:51:16.955Z,100.00
2023-02-19T08:53:44.250Z,100.00
2023-02-19T08:56:16.205Z,100.00
2023-02-19T08:58:44.596Z,100.00
2023-02-19T09:01:14.761Z,99.97
2023-02-19T09:03:45.716Z,99.96
2023-02-19T09:06:19.594Z,100.00
2023-02-19T09:08:47.493Z,100.00
2023-02-19T09:11:15.182Z,100.00
2023-02-19T09:13:43.683Z,100.00
2023-02-19T09:16:12.218Z,99.85
2023-02-19T09:18:40.308Z,99.99
2023-02-19T09:21:07.943Z,100.00
2023-02-19T09:23:37.030Z,100.00
2023-02-19T09:26:08.812Z,100.00
2023-02-19T09:28:36.748Z,100.00
2023-02-19T09:31:09.897Z,100.00
2023-02-19T09:33:37.672Z,100.00
2023-02-19T09:36:05.446Z,100.00
2023-02-19T09:38:34.217Z,100.00
2023-02-19T09:41:08.377Z,100.00
2023-02-19T09:43:36.356Z,99.99
2023-02-19T09:46:13.825Z,100.00
2023-02-19T09:48:41.951Z,100.00
2023-02-19T09:51:11.704Z,100.00
2023-02-19T09:53:48.053Z,100.00
2023-02-19T09:56:17.274Z,100.00
2023-02-19T09:58:50.387Z,99.71
2023-02-19T10:01:18.964Z,99.62
2023-02-19T10:03:48.731Z,99.48
2023-02-19T10:06:20.894Z,100.00
2023-02-19T10:08:51.811Z,99.88
2023-02-19T10:11:19.921Z,99.84
2023-02-19T10:13:57.280Z,100.00
2023-02-19T10:16:27.110Z,99.72
2023-02-19T10:18:54.685Z,100.00
2023-02-19T10:21:27.674Z,100.00
2023-02-19T10:24:03.271Z,100.00
2023-02-19T10:26:35.588Z,100.00
2023-02-19T10:29:04.685Z,99.37
2023-02-19T10:31:33.665Z,100.00
2023-02-19T10:34:08.066Z,100.00
2023-02-19T10:36:39.720Z,99.90
2023-02-19T10:39:42.666Z,99.88
2023-02-19T10:42:19.390Z,98.40
2023-02-19T10:44:51.760Z,99.01
2023-02-19T10:47:23.330Z,98.47
2023-02-19T10:49:52.995Z,98.91
2023-02-19T10:52:30.653Z,99.41
2023-02-19T10:55:25.583Z,99.88
2023-02-19T10:57:53.319Z,98.93
2023-02-19T11:00:31.793Z,99.92
2023-02-19T11:03:21.253Z,99.98
2023-02-19T11:05:58.403Z,99.34
2023-02-19T11:08:26.044Z,98.90
2023-02-19T11:10:53.608Z,99.17
2023-02-19T11:13:31.205Z,99.05
2023-02-19T11:16:00.919Z,99.10
2023-02-19T11:18:32.220Z,98.31
2023-02-19T11:21:02.765Z,97.62
2023-02-19T11:23:32.840Z,98.22
2023-02-19T11:26:05.164Z,98.45
2023-02-19T11:28:39.256Z,98.68
2023-02-19T11:31:32.689Z,98.36
2023-02-19T11:34:29.525Z,98.33
2023-02-19T11:37:17.416Z,99.44
2023-02-19T11:39:47.649Z,99.82
2023-02-19T11:42:48.912Z,99.85
2023-02-19T11:45:19.474Z,99.60
2023-02-19T11:48:07.129Z,99.00
2023-02-19T11:50:52.878Z,99.33
2023-02-19T11:53:28.396Z,100.00
2023-02-19T11:56:20.979Z,99.43
2023-02-19T11:59:05.197Z,99.73
2023-02-19T12:01:47.445Z,100.00
2023-02-19T12:04:37.765Z,99.99
2023-02-19T12:07:16.499Z,99.92
2023-02-19T12:09:44.549Z,99.78
2023-02-19T12:12:56.596Z,99.62
2023-02-19T12:15:32.110Z,99.86
2023-02-19T12:18:27.336Z,99.80
2023-02-19T12:21:16.323Z,100.00
2023-02-19T12:23:55.680Z,99.46
2023-02-19T12:26:26.459Z,99.45
2023-02-19T12:29:01.592Z,100.00
2023-02-19T12:31:47.907Z,99.60
2023-02-19T12:34:38.107Z,99.00
2023-02-19T12:37:29.626Z,99.73
2023-02-19T12:40:12.862Z,99.73
2023-02-19T12:43:02.178Z,100.00
2023-02-19T12:45:41.131Z,100.00
2023-02-19T12:48:26.741Z,99.42
2023-02-19T12:51:25.436Z,99.63
2023-02-19T12:54:05.039Z,100.00
2023-02-19T12:56:45.154Z,99.39
2023-02-19T12:59:16.157Z,100.00
2023-02-19T13:01:53.491Z,100.00
2023-02-19T13:04:41.951Z,100.00
2023-02-19T13:07:20.768Z,99.22
2023-02-19T13:09:56.314Z,100.00
2023-02-19T13:12:37.050Z,99.74
2023-02-19T13:15:17.103Z,100.00
2023-02-19T13:17:49.738Z,100.00
2023-02-19T13:20:30.477Z,100.00
2023-02-19T13:23:30.673Z,100.00
2023-02-19T13:26:12.242Z,99.93
2023-02-19T13:28:54.539Z,100.00
2023-02-19T13:31:34.322Z,100.00
2023-02-19T13:34:33.402Z,100.00
2023-02-19T13:37:03.694Z,100.00
2023-02-19T13:39:31.681Z,100.00
2023-02-19T13:41:59.647Z,100.00
2023-02-19T13:44:33.650Z,100.00
2023-02-19T13:47:01.207Z,100.00
2023-02-19T13:49:28.554Z,100.00
2023-02-19T13:51:56.614Z,100.00
2023-02-19T13:54:40.043Z,100.00
2023-02-19T13:57:22.828Z,100.00
2023-02-19T13:59:55.146Z,100.00
2023-02-19T14:02:22.701Z,100.00
2023-02-19T14:05:02.421Z,100.00
2023-02-19T14:07:49.538Z,100.00
2023-02-19T14:10:51.756Z,100.00
2023-02-19T14:13:50.138Z,99.70
2023-02-19T14:16:38.211Z,100.00
2023-02-19T14:19:14.730Z,99.68
2023-02-19T14:21:44.258Z,99.99
2023-02-19T14:24:13.823Z,100.00
2023-02-19T14:26:41.683Z,100.00
2023-02-19T14:29:12.820Z,100.00
2023-02-19T14:31:40.738Z,100.00
2023-02-19T14:34:25.197Z,100.00
2023-02-19T14:36:58.601Z,100.00
2023-02-19T14:39:38.212Z,100.00
2023-02-19T14:42:09.304Z,100.00
2023-02-19T14:44:59.240Z,100.00
2023-02-19T14:47:31.063Z,100.00
2023-02-19T14:50:03.831Z,100.00
2023-02-19T14:52:41.086Z,100.00
2023-02-19T14:55:15.067Z,100.00
2023-02-19T14:57:47.597Z,100.00
2023-02-19T15:00:38.624Z,100.00
2023-02-19T15:03:07.711Z,100.00
2023-02-19T15:05:37.737Z,100.00
2023-02-19T15:08:12.919Z,100.00
2023-02-19T15:10:43.257Z,100.00
2023-02-19T15:13:20.045Z,100.00
2023-02-19T15:15:51.208Z,100.00
2023-02-19T15:18:24.368Z,100.00
2023-02-19T15:20:59.103Z,100.00
2023-02-19T15:23:30.787Z,100.00
2023-02-19T15:25:58.980Z,100.00
2023-02-19T15:28:26.324Z,100.00
2023-02-19T15:31:01.076Z,100.00
2023-02-19T15:33:31.339Z,100.00
2023-02-19T15:36:06.167Z,100.00
2023-02-19T15:38:34.814Z,100.00
2023-02-19T15:41:03.368Z,100.00
2023-02-19T15:44:02.149Z,100.00
2023-02-19T15:46:34.319Z,100.00
2023-02-19T15:49:19.713Z,100.00
2023-02-19T15:51:57.353Z,100.00
2023-02-19T15:54:32.098Z,100.00
2023-02-19T15:57:07.290Z,100.00
2023-02-19T16:00:03.688Z,100.00
2023-02-19T16:02:40.854Z,100.00
2023-02-19T16:05:23.466Z,100.00
2023-02-19T16:08:33.727Z,100.00
2023-02-19T16:11:04.145Z,100.00
2023-02-19T16:13:38.272Z,100.00
2023-02-19T16:16:25.014Z,100.00
2023-02-19T16:18:53.730Z,100.00
2023-02-19T16:21:24.690Z,100.00
2023-02-19T16:24:00.975Z,100.00
2023-02-19T16:26:28.744Z,100.00
2023-02-19T16:31:49.184Z,100.00
2023-02-19T16:34:38.755Z,100.00
2023-02-19T16:37:32.864Z,100.00
2023-02-19T16:40:09.599Z,100.00
2023-02-19T16:42:52.334Z,100.00
2023-02-19T16:45:19.995Z,100.00
2023-02-19T16:47:51.416Z,100.00
2023-02-19T16:50:22.312Z,100.00
2023-02-19T16:52:57.058Z,100.00
2023-02-19T16:55:24.850Z,100.00
2023-02-19T16:57:52.697Z,100.00
2023-02-19T17:00:23.356Z,100.00
2023-02-19T17:03:09.400Z,100.00
2023-02-19T17:05:43.051Z,100.00
2023-02-19T17:08:42.834Z,100.00
2023-02-19T17:11:13.216Z,100.00
2023-02-19T17:13:42.043Z,100.00
2023-02-19T17:16:21.733Z,100.00
2023-02-19T17:18:51.071Z,100.00
2023-02-19T17:21:25.813Z,100.00
2023-02-19T17:23:54.158Z,100.00
2023-02-19T17:26:24.925Z,100.00
2023-02-19T17:29:24.475Z,100.00
2023-02-19T17:32:19.483Z,100.00
2023-02-19T17:34:49.953Z,100.00
2023-02-19T17:37:17.758Z,100.00
2023-02-19T17:39:45.152Z,100.00
2023-02-19T17:42:12.766Z,100.00
2023-02-19T17:44:40.876Z,100.00
2023-02-19T17:47:08.525Z,100.00
2023-02-19T17:49:36.621Z,100.00
2023-02-19T17:52:05.776Z,100.00
2023-02-19T17:54:34.461Z,100.00
2023-02-19T17:57:05.025Z,100.00
2023-02-19T17:59:32.634Z,100.00
2023-02-19T18:02:00.141Z,100.00
2023-02-19T18:04:28.630Z,100.00
2023-02-19T18:06:56.224Z,100.00
2023-02-19T18:09:23.766Z,100.00
2023-02-19T18:11:51.761Z,100.00
2023-02-19T18:14:19.744Z,100.00
2023-02-19T18:16:50.238Z,100.00
2023-02-19T18:19:18.382Z,100.00
2023-02-19T18:21:45.905Z,100.00
2023-02-19T18:24:13.197Z,100.00
2023-02-19T18:26:41.448Z,100.00
2023-02-19T18:29:08.987Z,100.00
2023-02-19T18:31:37.981Z,100.00
2023-02-19T18:34:06.260Z,100.00
2023-02-19T18:36:33.610Z,100.00
2023-02-19T18:39:05.403Z,100.00
2023-02-19T18:41:33.137Z,100.00
2023-02-19T18:46:57.781Z,100.00
2023-02-19T18:49:32.500Z,100.00
2023-02-19T18:52:02.150Z,100.00
2023-02-19T18:54:30.904Z,100.00
2023-02-19T18:57:00.959Z,100.00
2023-02-19T18:59:28.631Z,100.00
2023-02-19T19:01:56.161Z,100.00
2023-02-19T19:04:23.993Z,100.00
2023-02-19T19:06:51.683Z,100.00
2023-02-19T19:09:19.171Z,100.00
2023-02-19T19:11:47.129Z,100.00
2023-02-19T19:14:14.650Z,100.00
2023-02-19T19:16:42.721Z,100.00
2023-02-19T19:19:11.425Z,100.00
2023-02-19T19:21:39.521Z,100.00
2023-02-19T19:24:08.006Z,100.00
2023-02-19T19:26:35.826Z,100.00
2023-02-19T19:29:03.632Z,100.00
2023-02-19T19:31:37.076Z,100.00
2023-02-19T19:34:07.747Z,100.00
2023-02-19T19:36:40.455Z,100.00
2023-02-19T19:39:45.426Z,100.00
2023-02-19T19:42:18.064Z,100.00
2023-02-19T19:44:47.955Z,100.00
2023-02-19T19:47:15.373Z,100.00
2023-02-19T19:49:49.200Z,100.00
2023-02-19T19:52:17.995Z,100.00
2023-02-19T19:54:45.683Z,100.00
2023-02-19T19:57:13.489Z,100.00
2023-02-19T19:59:42.132Z,100.00
2023-02-19T20:02:12.062Z,100.00
2023-02-19T20:04:39.405Z,100.00
2023-02-19T20:07:06.946Z,100.00
2023-02-19T20:09:34.499Z,100.00
2023-02-19T20:12:04.853Z,100.00
2023-02-19T20:14:33.889Z,100.00
2023-02-19T20:17:01.899Z,100.00
2023-02-19T20:19:29.291Z,100.00
2023-02-19T20:21:56.913Z,100.00
2023-02-19T20:24:28.764Z,100.00
2023-02-19T20:26:58.887Z,100.00
2023-02-19T20:29:30.796Z,100.00
2023-02-19T20:32:04.022Z,100.00
2023-02-19T20:34:31.901Z,100.00
2023-02-19T20:36:59.603Z,100.00
2023-02-19T20:39:29.675Z,100.00
2023-02-19T20:41:59.190Z,100.00
2023-02-19T20:44:28.624Z,100.00
2023-02-19T20:47:00.889Z,100.00
2023-02-19T20:49:31.004Z,100.00
2023-02-19T20:52:02.460Z,100.00
2023-02-19T20:54:32.653Z,100.00
2023-02-19T20:57:02.525Z,100.00
2023-02-19T20:59:35.676Z,100.00
2023-02-19T21:02:08.837Z,100.00
2023-02-19T21:04:41.123Z,100.00
2023-02-19T21:07:08.631Z,100.00
2023-02-19T21:09:36.018Z,100.00
2023-02-19T21:12:03.650Z,100.00
2023-02-19T21:14:31.836Z,100.00
2023-02-19T21:16:59.411Z,100.00
2023-02-19T21:19:27.049Z,100.00
2023-02-19T21:21:54.678Z,100.00
2023-02-19T21:24:22.091Z,100.00
2023-02-19T21:26:49.823Z,100.00
2023-02-19T21:29:20.136Z,100.00
2023-02-19T21:31:50.550Z,100.00
2023-02-19T21:34:23.482Z,100.00
2023-02-19T21:36:50.898Z,100.00
2023-02-19T21:39:21.876Z,100.00
2023-02-19T21:41:49.770Z,100.00
2023-02-19T21:44:17.682Z,100.00
2023-02-19T21:47:03.689Z,100.00
2023-02-19T21:49:31.444Z,100.00
2023-02-19T21:52:00.859Z,100.00
2023-02-19T21:54:28.615Z,100.00
2023-02-19T21:56:59.237Z,100.00
2023-02-19T21:59:26.870Z,100.00
2023-02-19T22:01:57.664Z,100.00
2023-02-19T22:04:25.165Z,100.00
2023-02-19T22:06:56.618Z,100.00
2023-02-19T22:09:24.354Z,100.00
2023-02-19T22:11:51.831Z,100.00
2023-02-19T22:14:19.370Z,100.00
2023-02-19T22:16:47.474Z,100.00
2023-02-19T22:19:15.201Z,100.00
2023-02-19T22:21:44.726Z,100.00
2023-02-19T22:24:21.097Z,100.00
2023-02-19T22:26:50.736Z,100.00
2023-02-19T22:29:18.291Z,100.00
2023-02-19T22:31:46.011Z,100.00
2023-02-19T22:34:15.634Z,100.00
2023-02-19T22:36:43.327Z,100.00
2023-02-19T22:39:22.761Z,100.00
2023-02-19T22:41:52.210Z,100.00
2023-02-19T22:44:19.811Z,100.00
2023-02-19T22:46:51.336Z,100.00
2023-02-19T22:49:19.810Z,100.00
2023-02-19T22:52:11.052Z,100.00
2023-02-19T22:54:38.630Z,100.00
2023-02-19T22:57:06.217Z,100.00
2023-02-19T22:59:34.311Z,100.00
2023-02-19T23:02:02.438Z,100.00
2023-02-19T23:04:30.094Z,100.00
2023-02-19T23:06:57.662Z,100.00
2023-02-19T23:09:27.586Z,100.00
2023-02-19T23:12:02.627Z,100.00
2023-02-19T23:14:30.140Z,99.84
2023-02-19T23:16:57.645Z,100.00
2023-02-19T23:19:25.582Z,100.00
2023-02-19T23:21:53.483Z,100.00
2023-02-19T23:24:21.207Z,100.00
2023-02-19T23:26:52.141Z,100.00
2023-02-19T23:29:27.424Z,100.00
2023-02-19T23:31:55.608Z,100.00
2023-02-19T23:34:24.584Z,100.00
2023-02-19T23:36:52.528Z,100.00
2023-02-19T23:39:22.102Z,100.00
2023-02-19T23:41:52.049Z,100.00
2023-02-19T23:44:21.453Z,100.00
2023-02-19T23:46:50.373Z,100.00
2023-02-19T23:49:18.444Z,100.00
2023-02-19T23:51:45.781Z,100.00
2023-02-19T23:54:13.686Z,100.00
2023-02-19T23:56:41.292Z,100.00
2023-02-19T23:59:08.795Z,100.00
